sensor_id;sensor_type;location;lat;lon;timestamp;P1;durP1;ratioP1;P2;durP2;ratioP2
70814;SDS011;58428;49.478;10.986;2022-08-14T00:07:25;9.02;;;6.03;;
70814;SDS011;58428;49.478;10.986;2022-08-14T00:09:51;8.82;;;6.53;;
70814;SDS011;58428;49.478;10.986;2022-08-14T00:12:18;8.63;;;6.50;;
70814;SDS011;58428;49.478;10.986;2022-08-14T00:14:44;8.50;;;6.05;;
70814;SDS011;58428;49.478;10.986;2022-08-14T00:17:10;9.57;;;6.47;;
70814;SDS011;58428;49.478;10.986;2022-08-14T00:19:35;10.15;;;6.18;;
70814;SDS011;58428;49.478;10.986;2022-08-14T00:24:37;12.18;;;7.13;;
70814;SDS011;58428;49.478;10.986;2022-08-14T00:27:04;9.15;;;6.15;;
70814;SDS011;58428;49.478;10.986;2022-08-14T00:29:30;9.73;;;6.93;;
70814;SDS011;58428;49.478;10.986;2022-08-14T00:31:55;10.80;;;6.90;;
70814;SDS011;58428;49.478;10.986;2022-08-14T00:34:22;9.32;;;6.80;;
70814;SDS011;58428;49.478;10.986;2022-08-14T00:36:48;10.18;;;6.45;;
70814;SDS011;58428;49.478;10.986;2022-08-14T00:39:15;10.75;;;7.00;;
70814;SDS011;58428;49.478;10.986;2022-08-14T00:41:41;9.10;;;6.57;;
70814;SDS011;58428;49.478;10.986;2022-08-14T00:44:07;10.75;;;7.40;;
70814;SDS011;58428;49.478;10.986;2022-08-14T00:46:35;9.38;;;7.10;;
70814;SDS011;58428;49.478;10.986;2022-08-14T00:49:02;10.10;;;6.35;;
70814;SDS011;58428;49.478;10.986;2022-08-14T00:51:28;10.75;;;7.38;;
70814;SDS011;58428;49.478;10.986;2022-08-14T00:53:57;11.20;;;6.70;;
70814;SDS011;58428;49.478;10.986;2022-08-14T00:56:26;8.93;;;6.47;;
70814;SDS011;58428;49.478;10.986;2022-08-14T00:58:53;9.57;;;6.57;;
70814;SDS011;58428;49.478;10.986;2022-08-14T01:01:22;9.20;;;6.40;;
70814;SDS011;58428;49.478;10.986;2022-08-14T01:03:48;9.98;;;6.50;;
70814;SDS011;58428;49.478;10.986;2022-08-14T01:06:13;9.48;;;6.55;;
70814;SDS011;58428;49.478;10.986;2022-08-14T01:08:42;9.60;;;6.57;;
70814;SDS011;58428;49.478;10.986;2022-08-14T01:11:09;8.88;;;6.75;;
70814;SDS011;58428;49.478;10.986;2022-08-14T01:13:40;9.63;;;7.22;;
70814;SDS011;58428;49.478;10.986;2022-08-14T01:16:10;10.68;;;7.13;;
70814;SDS011;58428;49.478;10.986;2022-08-14T01:18:38;9.82;;;6.72;;
70814;SDS011;58428;49.478;10.986;2022-08-14T01:23:49;9.95;;;6.43;;
70814;SDS011;58428;49.478;10.986;2022-08-14T01:26:17;8.57;;;6.78;;
70814;SDS011;58428;49.478;10.986;2022-08-14T01:28:46;10.88;;;7.18;;
70814;SDS011;58428;49.478;10.986;2022-08-14T01:31:14;10.27;;;7.22;;
70814;SDS011;58428;49.478;10.986;2022-08-14T01:33:42;12.32;;;7.63;;
70814;SDS011;58428;49.478;10.986;2022-08-14T01:36:14;10.05;;;7.28;;
70814;SDS011;58428;49.478;10.986;2022-08-14T01:38:42;10.25;;;7.72;;
70814;SDS011;58428;49.478;10.986;2022-08-14T01:41:10;12.45;;;6.90;;
70814;SDS011;58428;49.478;10.986;2022-08-14T01:46:09;9.35;;;6.93;;
70814;SDS011;58428;49.478;10.986;2022-08-14T01:48:36;10.55;;;7.15;;
70814;SDS011;58428;49.478;10.986;2022-08-14T01:51:03;9.65;;;6.90;;
70814;SDS011;58428;49.478;10.986;2022-08-14T01:53:30;11.52;;;7.57;;
70814;SDS011;58428;49.478;10.986;2022-08-14T01:55:58;10.88;;;7.60;;
70814;SDS011;58428;49.478;10.986;2022-08-14T01:58:28;11.98;;;7.95;;
70814;SDS011;58428;49.478;10.986;2022-08-14T02:00:55;10.77;;;8.13;;
70814;SDS011;58428;49.478;10.986;2022-08-14T02:03:27;10.65;;;8.15;;
70814;SDS011;58428;49.478;10.986;2022-08-14T02:05:54;10.70;;;7.75;;
70814;SDS011;58428;49.478;10.986;2022-08-14T02:08:24;10.30;;;7.13;;
70814;SDS011;58428;49.478;10.986;2022-08-14T02:10:54;10.98;;;7.80;;
70814;SDS011;58428;49.478;10.986;2022-08-14T02:13:46;10.15;;;6.95;;
70814;SDS011;58428;49.478;10.986;2022-08-14T02:16:19;10.30;;;7.43;;
70814;SDS011;58428;49.478;10.986;2022-08-14T02:18:49;11.45;;;7.97;;
70814;SDS011;58428;49.478;10.986;2022-08-14T02:21:15;11.18;;;8.27;;
70814;SDS011;58428;49.478;10.986;2022-08-14T02:23:46;10.63;;;7.88;;
70814;SDS011;58428;49.478;10.986;2022-08-14T02:26:14;11.52;;;7.97;;
70814;SDS011;58428;49.478;10.986;2022-08-14T02:28:44;11.00;;;7.72;;
70814;SDS011;58428;49.478;10.986;2022-08-14T02:31:12;9.32;;;7.45;;
70814;SDS011;58428;49.478;10.986;2022-08-14T02:33:39;10.43;;;7.60;;
70814;SDS011;58428;49.478;10.986;2022-08-14T02:36:06;10.10;;;7.65;;
70814;SDS011;58428;49.478;10.986;2022-08-14T02:38:33;10.05;;;7.50;;
70814;SDS011;58428;49.478;10.986;2022-08-14T02:41:00;12.00;;;8.25;;
70814;SDS011;58428;49.478;10.986;2022-08-14T02:43:26;10.63;;;7.53;;
70814;SDS011;58428;49.478;10.986;2022-08-14T02:45:54;11.07;;;7.82;;
70814;SDS011;58428;49.478;10.986;2022-08-14T02:48:20;11.25;;;7.90;;
70814;SDS011;58428;49.478;10.986;2022-08-14T02:50:46;11.43;;;7.82;;
70814;SDS011;58428;49.478;10.986;2022-08-14T02:53:14;10.90;;;8.23;;
70814;SDS011;58428;49.478;10.986;2022-08-14T02:55:40;12.75;;;8.73;;
70814;SDS011;58428;49.478;10.986;2022-08-14T02:58:07;11.45;;;7.40;;
70814;SDS011;58428;49.478;10.986;2022-08-14T03:00:33;11.18;;;8.48;;
70814;SDS011;58428;49.478;10.986;2022-08-14T03:03:00;11.55;;;8.00;;
70814;SDS011;58428;49.478;10.986;2022-08-14T03:05:26;10.75;;;7.68;;
70814;SDS011;58428;49.478;10.986;2022-08-14T03:08:02;11.40;;;7.70;;
70814;SDS011;58428;49.478;10.986;2022-08-14T03:10:33;10.70;;;8.30;;
70814;SDS011;58428;49.478;10.986;2022-08-14T03:12:59;11.77;;;8.15;;
70814;SDS011;58428;49.478;10.986;2022-08-14T03:15:28;10.55;;;7.82;;
70814;SDS011;58428;49.478;10.986;2022-08-14T03:17:54;12.40;;;8.57;;
70814;SDS011;58428;49.478;10.986;2022-08-14T03:20:20;11.85;;;8.10;;
70814;SDS011;58428;49.478;10.986;2022-08-14T03:22:45;11.05;;;8.38;;
70814;SDS011;58428;49.478;10.986;2022-08-14T03:25:11;10.93;;;8.13;;
70814;SDS011;58428;49.478;10.986;2022-08-14T03:27:37;12.23;;;8.43;;
70814;SDS011;58428;49.478;10.986;2022-08-14T03:30:03;11.95;;;8.55;;
70814;SDS011;58428;49.478;10.986;2022-08-14T03:32:29;10.85;;;8.15;;
70814;SDS011;58428;49.478;10.986;2022-08-14T03:34:57;12.88;;;8.27;;
70814;SDS011;58428;49.478;10.986;2022-08-14T03:37:23;11.02;;;7.97;;
70814;SDS011;58428;49.478;10.986;2022-08-14T03:39:51;13.27;;;8.63;;
70814;SDS011;58428;49.478;10.986;2022-08-14T03:42:17;12.80;;;9.50;;
70814;SDS011;58428;49.478;10.986;2022-08-14T03:44:43;13.48;;;8.95;;
70814;SDS011;58428;49.478;10.986;2022-08-14T03:47:09;11.57;;;8.75;;
70814;SDS011;58428;49.478;10.986;2022-08-14T03:49:36;14.88;;;8.90;;
70814;SDS011;58428;49.478;10.986;2022-08-14T03:52:01;13.40;;;8.93;;
70814;SDS011;58428;49.478;10.986;2022-08-14T03:54:28;12.50;;;8.70;;
70814;SDS011;58428;49.478;10.986;2022-08-14T03:56:54;11.27;;;8.63;;
70814;SDS011;58428;49.478;10.986;2022-08-14T03:59:24;12.77;;;8.93;;
70814;SDS011;58428;49.478;10.986;2022-08-14T04:01:50;11.63;;;8.82;;
70814;SDS011;58428;49.478;10.986;2022-08-14T04:04:16;11.88;;;8.77;;
70814;SDS011;58428;49.478;10.986;2022-08-14T04:06:42;13.40;;;9.48;;
70814;SDS011;58428;49.478;10.986;2022-08-14T04:09:08;12.90;;;9.43;;
70814;SDS011;58428;49.478;10.986;2022-08-14T04:11:34;13.00;;;8.93;;
70814;SDS011;58428;49.478;10.986;2022-08-14T04:14:01;12.93;;;9.18;;
70814;SDS011;58428;49.478;10.986;2022-08-14T04:16:27;12.80;;;9.10;;
70814;SDS011;58428;49.478;10.986;2022-08-14T04:18:54;12.38;;;9.07;;
70814;SDS011;58428;49.478;10.986;2022-08-14T04:21:22;12.13;;;8.93;;
70814;SDS011;58428;49.478;10.986;2022-08-14T04:23:50;12.95;;;9.02;;
70814;SDS011;58428;49.478;10.986;2022-08-14T04:26:18;14.18;;;10.00;;
70814;SDS011;58428;49.478;10.986;2022-08-14T04:28:46;13.27;;;9.25;;
70814;SDS011;58428;49.478;10.986;2022-08-14T04:31:13;12.15;;;9.23;;
70814;SDS011;58428;49.478;10.986;2022-08-14T04:33:40;12.20;;;9.00;;
70814;SDS011;58428;49.478;10.986;2022-08-14T04:36:08;12.75;;;9.27;;
70814;SDS011;58428;49.478;10.986;2022-08-14T04:38:33;12.70;;;8.95;;
70814;SDS011;58428;49.478;10.986;2022-08-14T04:41:17;12.00;;;8.77;;
70814;SDS011;58428;49.478;10.986;2022-08-14T04:44:02;13.10;;;9.27;;
70814;SDS011;58428;49.478;10.986;2022-08-14T04:46:29;12.43;;;8.95;;
70814;SDS011;58428;49.478;10.986;2022-08-14T04:48:55;14.35;;;9.52;;
70814;SDS011;58428;49.478;10.986;2022-08-14T04:51:21;15.88;;;9.18;;
70814;SDS011;58428;49.478;10.986;2022-08-14T04:53:52;13.05;;;9.45;;
70814;SDS011;58428;49.478;10.986;2022-08-14T04:56:19;12.95;;;9.50;;
70814;SDS011;58428;49.478;10.986;2022-08-14T04:58:47;13.27;;;9.70;;
70814;SDS011;58428;49.478;10.986;2022-08-14T05:01:14;12.43;;;8.73;;
70814;SDS011;58428;49.478;10.986;2022-08-14T05:03:41;14.05;;;9.57;;
70814;SDS011;58428;49.478;10.986;2022-08-14T05:06:09;12.30;;;9.02;;
70814;SDS011;58428;49.478;10.986;2022-08-14T05:08:38;13.00;;;9.05;;
70814;SDS011;58428;49.478;10.986;2022-08-14T05:11:05;13.10;;;9.98;;
70814;SDS011;58428;49.478;10.986;2022-08-14T05:13:32;12.80;;;9.77;;
70814;SDS011;58428;49.478;10.986;2022-08-14T05:16:00;13.00;;;9.50;;
70814;SDS011;58428;49.478;10.986;2022-08-14T05:18:28;14.75;;;9.82;;
70814;SDS011;58428;49.478;10.986;2022-08-14T05:20:59;13.35;;;9.57;;
70814;SDS011;58428;49.478;10.986;2022-08-14T05:23:28;12.77;;;9.48;;
70814;SDS011;58428;49.478;10.986;2022-08-14T05:25:57;12.50;;;9.73;;
70814;SDS011;58428;49.478;10.986;2022-08-14T05:28:41;13.93;;;9.40;;
70814;SDS011;58428;49.478;10.986;2022-08-14T05:31:11;13.10;;;9.38;;
70814;SDS011;58428;49.478;10.986;2022-08-14T05:33:38;12.98;;;9.50;;
70814;SDS011;58428;49.478;10.986;2022-08-14T05:36:05;14.10;;;9.63;;
70814;SDS011;58428;49.478;10.986;2022-08-14T05:38:33;12.70;;;8.82;;
70814;SDS011;58428;49.478;10.986;2022-08-14T05:41:05;14.23;;;9.05;;
70814;SDS011;58428;49.478;10.986;2022-08-14T05:43:33;11.40;;;8.90;;
70814;SDS011;58428;49.478;10.986;2022-08-14T05:46:01;10.35;;;8.05;;
70814;SDS011;58428;49.478;10.986;2022-08-14T05:48:27;12.18;;;8.43;;
70814;SDS011;58428;49.478;10.986;2022-08-14T05:50:53;12.52;;;8.40;;
70814;SDS011;58428;49.478;10.986;2022-08-14T05:53:20;11.95;;;8.25;;
70814;SDS011;58428;49.478;10.986;2022-08-14T05:55:46;12.38;;;8.25;;
70814;SDS011;58428;49.478;10.986;2022-08-14T05:58:12;11.93;;;8.43;;
70814;SDS011;58428;49.478;10.986;2022-08-14T06:00:39;12.05;;;8.90;;
70814;SDS011;58428;49.478;10.986;2022-08-14T06:03:08;13.25;;;9.38;;
70814;SDS011;58428;49.478;10.986;2022-08-14T06:05:36;11.00;;;8.00;;
70814;SDS011;58428;49.478;10.986;2022-08-14T06:08:02;12.23;;;8.45;;
70814;SDS011;58428;49.478;10.986;2022-08-14T06:10:29;12.30;;;8.93;;
70814;SDS011;58428;49.478;10.986;2022-08-14T06:12:58;11.93;;;8.60;;
70814;SDS011;58428;49.478;10.986;2022-08-14T06:15:28;11.80;;;9.13;;
70814;SDS011;58428;49.478;10.986;2022-08-14T06:17:53;14.13;;;8.30;;
70814;SDS011;58428;49.478;10.986;2022-08-14T06:20:20;11.25;;;8.05;;
70814;SDS011;58428;49.478;10.986;2022-08-14T06:22:47;9.93;;;7.55;;
70814;SDS011;58428;49.478;10.986;2022-08-14T06:25:13;11.07;;;7.60;;
70814;SDS011;58428;49.478;10.986;2022-08-14T06:27:41;11.00;;;8.32;;
70814;SDS011;58428;49.478;10.986;2022-08-14T06:30:09;11.48;;;7.80;;
70814;SDS011;58428;49.478;10.986;2022-08-14T06:32:37;10.38;;;7.47;;
70814;SDS011;58428;49.478;10.986;2022-08-14T06:35:06;11.00;;;7.75;;
70814;SDS011;58428;49.478;10.986;2022-08-14T06:37:44;9.70;;;6.90;;
70814;SDS011;58428;49.478;10.986;2022-08-14T06:40:19;9.50;;;7.18;;
70814;SDS011;58428;49.478;10.986;2022-08-14T06:42:47;11.30;;;7.22;;
70814;SDS011;58428;49.478;10.986;2022-08-14T06:45:13;10.45;;;7.72;;
70814;SDS011;58428;49.478;10.986;2022-08-14T06:47:40;11.95;;;7.47;;
70814;SDS011;58428;49.478;10.986;2022-08-14T06:50:12;12.07;;;7.78;;
70814;SDS011;58428;49.478;10.986;2022-08-14T06:52:40;9.43;;;7.00;;
70814;SDS011;58428;49.478;10.986;2022-08-14T06:55:07;9.48;;;6.32;;
70814;SDS011;58428;49.478;10.986;2022-08-14T06:57:42;9.32;;;6.47;;
70814;SDS011;58428;49.478;10.986;2022-08-14T07:00:11;8.82;;;6.50;;
70814;SDS011;58428;49.478;10.986;2022-08-14T07:02:42;9.52;;;6.70;;
70814;SDS011;58428;49.478;10.986;2022-08-14T07:05:26;9.38;;;7.07;;
70814;SDS011;58428;49.478;10.986;2022-08-14T07:08:15;10.35;;;7.28;;
70814;SDS011;58428;49.478;10.986;2022-08-14T07:10:47;8.63;;;6.82;;
70814;SDS011;58428;49.478;10.986;2022-08-14T07:13:15;9.02;;;7.15;;
70814;SDS011;58428;49.478;10.986;2022-08-14T07:15:43;11.20;;;7.25;;
70814;SDS011;58428;49.478;10.986;2022-08-14T07:18:11;9.07;;;6.82;;
70814;SDS011;58428;49.478;10.986;2022-08-14T07:20:38;8.80;;;6.47;;
70814;SDS011;58428;49.478;10.986;2022-08-14T07:23:08;8.60;;;6.75;;
70814;SDS011;58428;49.478;10.986;2022-08-14T07:25:35;9.60;;;6.78;;
70814;SDS011;58428;49.478;10.986;2022-08-14T07:28:12;9.05;;;6.53;;
70814;SDS011;58428;49.478;10.986;2022-08-14T07:30:42;8.68;;;6.25;;
70814;SDS011;58428;49.478;10.986;2022-08-14T07:33:08;8.50;;;6.65;;
70814;SDS011;58428;49.478;10.986;2022-08-14T07:35:35;8.85;;;6.50;;
70814;SDS011;58428;49.478;10.986;2022-08-14T07:38:02;7.80;;;6.00;;
70814;SDS011;58428;49.478;10.986;2022-08-14T07:40:29;9.25;;;6.40;;
70814;SDS011;58428;49.478;10.986;2022-08-14T07:42:55;8.00;;;6.10;;
70814;SDS011;58428;49.478;10.986;2022-08-14T07:45:21;7.80;;;5.90;;
70814;SDS011;58428;49.478;10.986;2022-08-14T07:47:47;7.80;;;5.75;;
70814;SDS011;58428;49.478;10.986;2022-08-14T07:52:40;7.97;;;5.45;;
70814;SDS011;58428;49.478;10.986;2022-08-14T07:55:09;8.38;;;6.55;;
70814;SDS011;58428;49.478;10.986;2022-08-14T07:57:37;8.18;;;5.78;;
70814;SDS011;58428;49.478;10.986;2022-08-14T08:00:05;7.68;;;5.90;;
70814;SDS011;58428;49.478;10.986;2022-08-14T08:02:40;6.75;;;5.38;;
70814;SDS011;58428;49.478;10.986;2022-08-14T08:05:09;7.13;;;5.32;;
70814;SDS011;58428;49.478;10.986;2022-08-14T08:07:37;7.90;;;5.75;;
70814;SDS011;58428;49.478;10.986;2022-08-14T08:10:09;8.27;;;6.00;;
70814;SDS011;58428;49.478;10.986;2022-08-14T08:12:54;7.88;;;6.00;;
70814;SDS011;58428;49.478;10.986;2022-08-14T08:15:25;7.80;;;5.78;;
70814;SDS011;58428;49.478;10.986;2022-08-14T08:17:52;7.40;;;5.78;;
70814;SDS011;58428;49.478;10.986;2022-08-14T08:20:19;9.77;;;6.00;;
70814;SDS011;58428;49.478;10.986;2022-08-14T08:25:18;6.90;;;5.25;;
70814;SDS011;58428;49.478;10.986;2022-08-14T08:30:30;10.95;;;5.40;;
70814;SDS011;58428;49.478;10.986;2022-08-14T08:32:59;6.57;;;4.93;;
70814;SDS011;58428;49.478;10.986;2022-08-14T08:35:27;7.68;;;5.03;;
70814;SDS011;58428;49.478;10.986;2022-08-14T08:37:59;6.63;;;4.70;;
70814;SDS011;58428;49.478;10.986;2022-08-14T08:40:30;7.47;;;5.20;;
70814;SDS011;58428;49.478;10.986;2022-08-14T08:43:02;7.78;;;5.75;;
70814;SDS011;58428;49.478;10.986;2022-08-14T08:45:31;6.88;;;5.28;;
70814;SDS011;58428;49.478;10.986;2022-08-14T08:47:59;7.00;;;4.65;;
70814;SDS011;58428;49.478;10.986;2022-08-14T08:53:01;7.13;;;4.90;;
70814;SDS011;58428;49.478;10.986;2022-08-14T08:55:37;6.50;;;4.70;;
70814;SDS011;58428;49.478;10.986;2022-08-14T08:58:10;6.57;;;4.95;;
70814;SDS011;58428;49.478;10.986;2022-08-14T09:00:47;6.30;;;4.80;;
70814;SDS011;58428;49.478;10.986;2022-08-14T09:03:17;6.05;;;4.45;;
70814;SDS011;58428;49.478;10.986;2022-08-14T09:08:32;6.55;;;4.43;;
70814;SDS011;58428;49.478;10.986;2022-08-14T09:11:00;6.15;;;4.30;;
70814;SDS011;58428;49.478;10.986;2022-08-14T09:13:28;5.93;;;4.15;;
70814;SDS011;58428;49.478;10.986;2022-08-14T09:15:55;6.35;;;4.45;;
70814;SDS011;58428;49.478;10.986;2022-08-14T09:18:21;5.65;;;4.30;;
70814;SDS011;58428;49.478;10.986;2022-08-14T09:20:51;5.80;;;3.80;;
70814;SDS011;58428;49.478;10.986;2022-08-14T09:23:19;6.65;;;4.30;;
70814;SDS011;58428;49.478;10.986;2022-08-14T09:25:46;5.78;;;4.03;;
70814;SDS011;58428;49.478;10.986;2022-08-14T09:28:14;6.28;;;4.05;;
70814;SDS011;58428;49.478;10.986;2022-08-14T09:30:48;5.68;;;3.92;;
70814;SDS011;58428;49.478;10.986;2022-08-14T09:33:25;5.30;;;3.90;;
70814;SDS011;58428;49.478;10.986;2022-08-14T09:41:46;7.00;;;3.80;;
70814;SDS011;58428;49.478;10.986;2022-08-14T09:47:04;5.88;;;3.70;;
70814;SDS011;58428;49.478;10.986;2022-08-14T09:49:31;6.00;;;4.10;;
70814;SDS011;58428;49.478;10.986;2022-08-14T09:52:04;5.60;;;3.95;;
70814;SDS011;58428;49.478;10.986;2022-08-14T09:57:28;5.13;;;3.60;;
70814;SDS011;58428;49.478;10.986;2022-08-14T09:59:55;5.70;;;3.88;;
70814;SDS011;58428;49.478;10.986;2022-08-14T10:02:25;8.40;;;5.22;;
70814;SDS011;58428;49.478;10.986;2022-08-14T10:04:59;8.48;;;5.03;;
70814;SDS011;58428;49.478;10.986;2022-08-14T10:07:48;5.60;;;4.30;;
70814;SDS011;58428;49.478;10.986;2022-08-14T10:10:26;5.85;;;4.30;;
70814;SDS011;58428;49.478;10.986;2022-08-14T10:12:58;5.72;;;3.83;;
70814;SDS011;58428;49.478;10.986;2022-08-14T10:15:26;5.20;;;3.60;;
70814;SDS011;58428;49.478;10.986;2022-08-14T10:18:07;5.40;;;3.58;;
70814;SDS011;58428;49.478;10.986;2022-08-14T10:20:51;5.10;;;3.67;;
70814;SDS011;58428;49.478;10.986;2022-08-14T10:23:25;6.50;;;4.07;;
70814;SDS011;58428;49.478;10.986;2022-08-14T10:25:55;6.57;;;4.30;;
70814;SDS011;58428;49.478;10.986;2022-08-14T10:28:36;4.82;;;3.72;;
70814;SDS011;58428;49.478;10.986;2022-08-14T10:31:14;6.38;;;3.92;;
70814;SDS011;58428;49.478;10.986;2022-08-14T10:33:44;6.38;;;4.25;;
70814;SDS011;58428;49.478;10.986;2022-08-14T10:36:27;6.25;;;3.90;;
70814;SDS011;58428;49.478;10.986;2022-08-14T10:39:04;6.10;;;4.63;;
70814;SDS011;58428;49.478;10.986;2022-08-14T10:41:36;6.85;;;4.32;;
70814;SDS011;58428;49.478;10.986;2022-08-14T10:44:13;6.30;;;4.60;;
70814;SDS011;58428;49.478;10.986;2022-08-14T10:46:50;6.03;;;4.45;;
70814;SDS011;58428;49.478;10.986;2022-08-14T10:49:23;6.38;;;4.20;;
70814;SDS011;58428;49.478;10.986;2022-08-14T10:54:28;6.38;;;4.72;;
70814;SDS011;58428;49.478;10.986;2022-08-14T10:57:44;10.23;;;4.32;;
70814;SDS011;58428;49.478;10.986;2022-08-14T10:59:52;6.68;;;4.93;;
70814;SDS011;58428;49.478;10.986;2022-08-14T11:02:34;6.35;;;4.32;;
70814;SDS011;58428;49.478;10.986;2022-08-14T11:07:53;5.75;;;4.13;;
70814;SDS011;58428;49.478;10.986;2022-08-14T11:10:23;6.55;;;4.30;;
70814;SDS011;58428;49.478;10.986;2022-08-14T11:13:20;5.28;;;3.90;;
70814;SDS011;58428;49.478;10.986;2022-08-14T11:15:49;5.57;;;3.65;;
70814;SDS011;58428;49.478;10.986;2022-08-14T11:18:16;6.05;;;3.95;;
70814;SDS011;58428;49.478;10.986;2022-08-14T11:20:49;6.05;;;3.88;;
70814;SDS011;58428;49.478;10.986;2022-08-14T11:23:18;5.25;;;3.95;;
70814;SDS011;58428;49.478;10.986;2022-08-14T11:25:49;5.13;;;3.83;;
70814;SDS011;58428;49.478;10.986;2022-08-14T11:28:15;5.63;;;4.00;;
70814;SDS011;58428;49.478;10.986;2022-08-14T11:30:46;6.28;;;4.00;;
70814;SDS011;58428;49.478;10.986;2022-08-14T11:33:14;6.30;;;4.00;;
70814;SDS011;58428;49.478;10.986;2022-08-14T11:35:40;6.15;;;4.30;;
70814;SDS011;58428;49.478;10.986;2022-08-14T11:38:08;5.28;;;3.67;;
70814;SDS011;58428;49.478;10.986;2022-08-14T11:40:37;5.32;;;3.80;;
70814;SDS011;58428;49.478;10.986;2022-08-14T11:43:06;5.25;;;3.78;;
70814;SDS011;58428;49.478;10.986;2022-08-14T11:45:33;4.85;;;3.67;;
70814;SDS011;58428;49.478;10.986;2022-08-14T11:48:23;5.10;;;3.83;;
70814;SDS011;58428;49.478;10.986;2022-08-14T11:50:50;6.35;;;3.75;;
70814;SDS011;58428;49.478;10.986;2022-08-14T11:53:22;5.70;;;3.72;;
70814;SDS011;58428;49.478;10.986;2022-08-14T11:55:58;6.25;;;3.50;;
70814;SDS011;58428;49.478;10.986;2022-08-14T11:58:36;5.35;;;3.60;;
70814;SDS011;58428;49.478;10.986;2022-08-14T12:01:07;6.78;;;4.25;;
70814;SDS011;58428;49.478;10.986;2022-08-14T12:03:40;6.78;;;4.15;;
70814;SDS011;58428;49.478;10.986;2022-08-14T12:06:10;5.40;;;3.83;;
70814;SDS011;58428;49.478;10.986;2022-08-14T12:08:38;6.10;;;4.32;;
70814;SDS011;58428;49.478;10.986;2022-08-14T12:11:07;5.47;;;3.53;;
70814;SDS011;58428;49.478;10.986;2022-08-14T12:13:34;6.18;;;3.78;;
70814;SDS011;58428;49.478;10.986;2022-08-14T12:16:03;5.38;;;3.67;;
70814;SDS011;58428;49.478;10.986;2022-08-14T12:18:34;5.13;;;3.80;;
70814;SDS011;58428;49.478;10.986;2022-08-14T12:21:13;6.25;;;4.22;;
70814;SDS011;58428;49.478;10.986;2022-08-14T12:23:41;5.90;;;3.70;;
70814;SDS011;58428;49.478;10.986;2022-08-14T12:26:12;5.30;;;3.90;;
70814;SDS011;58428;49.478;10.986;2022-08-14T12:28:44;5.50;;;3.70;;
70814;SDS011;58428;49.478;10.986;2022-08-14T12:31:17;5.47;;;3.50;;
70814;SDS011;58428;49.478;10.986;2022-08-14T12:33:56;5.00;;;3.55;;
70814;SDS011;58428;49.478;10.986;2022-08-14T12:36:24;5.53;;;3.63;;
70814;SDS011;58428;49.478;10.986;2022-08-14T12:38:54;6.15;;;3.63;;
70814;SDS011;58428;49.478;10.986;2022-08-14T12:41:24;5.82;;;4.10;;
70814;SDS011;58428;49.478;10.986;2022-08-14T12:44:02;5.05;;;3.63;;
70814;SDS011;58428;49.478;10.986;2022-08-14T12:46:37;5.93;;;3.60;;
70814;SDS011;58428;49.478;10.986;2022-08-14T12:49:11;5.53;;;3.53;;
70814;SDS011;58428;49.478;10.986;2022-08-14T12:51:38;5.95;;;4.22;;
70814;SDS011;58428;49.478;10.986;2022-08-14T12:54:13;5.63;;;3.90;;
70814;SDS011;58428;49.478;10.986;2022-08-14T12:56:48;5.55;;;3.83;;
70814;SDS011;58428;49.478;10.986;2022-08-14T12:59:15;5.72;;;3.40;;
70814;SDS011;58428;49.478;10.986;2022-08-14T13:01:43;6.65;;;3.90;;
70814;SDS011;58428;49.478;10.986;2022-08-14T13:04:13;5.30;;;3.70;;
70814;SDS011;58428;49.478;10.986;2022-08-14T13:06:41;5.63;;;3.90;;
70814;SDS011;58428;49.478;10.986;2022-08-14T13:09:09;6.30;;;4.28;;
70814;SDS011;58428;49.478;10.986;2022-08-14T13:11:41;14.20;;;7.05;;
70814;SDS011;58428;49.478;10.986;2022-08-14T13:14:16;14.98;;;7.03;;
70814;SDS011;58428;49.478;10.986;2022-08-14T13:16:58;9.98;;;5.35;;
70814;SDS011;58428;49.478;10.986;2022-08-14T13:19:30;11.75;;;6.35;;
70814;SDS011;58428;49.478;10.986;2022-08-14T13:21:57;6.18;;;4.25;;
70814;SDS011;58428;49.478;10.986;2022-08-14T13:24:22;7.22;;;3.95;;
70814;SDS011;58428;49.478;10.986;2022-08-14T13:26:50;9.15;;;5.40;;
70814;SDS011;58428;49.478;10.986;2022-08-14T13:29:21;6.53;;;4.05;;
70814;SDS011;58428;49.478;10.986;2022-08-14T13:31:50;5.57;;;3.60;;
70814;SDS011;58428;49.478;10.986;2022-08-14T13:34:22;5.53;;;3.40;;
70814;SDS011;58428;49.478;10.986;2022-08-14T13:36:49;18.05;;;14.73;;
70814;SDS011;58428;49.478;10.986;2022-08-14T13:39:17;6.95;;;5.00;;
70814;SDS011;58428;49.478;10.986;2022-08-14T13:41:45;6.13;;;4.00;;
70814;SDS011;58428;49.478;10.986;2022-08-14T13:44:17;5.50;;;4.05;;
70814;SDS011;58428;49.478;10.986;2022-08-14T13:46:45;7.30;;;4.30;;
70814;SDS011;58428;49.478;10.986;2022-08-14T13:49:15;6.68;;;3.92;;
70814;SDS011;58428;49.478;10.986;2022-08-14T13:51:46;5.47;;;3.95;;
70814;SDS011;58428;49.478;10.986;2022-08-14T13:54:15;6.90;;;4.45;;
70814;SDS011;58428;49.478;10.986;2022-08-14T13:56:45;15.88;;;8.20;;
70814;SDS011;58428;49.478;10.986;2022-08-14T13:59:12;11.73;;;5.45;;
70814;SDS011;58428;49.478;10.986;2022-08-14T14:01:38;8.73;;;4.47;;
70814;SDS011;58428;49.478;10.986;2022-08-14T14:04:08;14.82;;;9.00;;
70814;SDS011;58428;49.478;10.986;2022-08-14T14:06:38;8.00;;;4.93;;
70814;SDS011;58428;49.478;10.986;2022-08-14T14:09:04;9.60;;;5.63;;
70814;SDS011;58428;49.478;10.986;2022-08-14T14:11:33;7.68;;;4.70;;
70814;SDS011;58428;49.478;10.986;2022-08-14T14:13:59;7.03;;;3.90;;
70814;SDS011;58428;49.478;10.986;2022-08-14T14:16:25;6.60;;;4.00;;
70814;SDS011;58428;49.478;10.986;2022-08-14T14:18:53;6.57;;;4.05;;
70814;SDS011;58428;49.478;10.986;2022-08-14T14:21:21;7.28;;;4.50;;
70814;SDS011;58428;49.478;10.986;2022-08-14T14:23:50;5.55;;;3.90;;
70814;SDS011;58428;49.478;10.986;2022-08-14T14:26:16;7.32;;;4.43;;
70814;SDS011;58428;49.478;10.986;2022-08-14T14:28:47;5.28;;;3.70;;
70814;SDS011;58428;49.478;10.986;2022-08-14T14:31:15;6.63;;;4.28;;
70814;SDS011;58428;49.478;10.986;2022-08-14T14:33:46;6.63;;;4.93;;
70814;SDS011;58428;49.478;10.986;2022-08-14T14:36:18;7.70;;;5.28;;
70814;SDS011;58428;49.478;10.986;2022-08-14T14:38:47;15.98;;;8.82;;
70814;SDS011;58428;49.478;10.986;2022-08-14T14:41:15;6.53;;;4.47;;
70814;SDS011;58428;49.478;10.986;2022-08-14T14:43:48;18.35;;;8.88;;
70814;SDS011;58428;49.478;10.986;2022-08-14T14:46:16;24.88;;;13.23;;
70814;SDS011;58428;49.478;10.986;2022-08-14T14:48:44;19.60;;;9.52;;
70814;SDS011;58428;49.478;10.986;2022-08-14T14:51:11;23.73;;;11.40;;
70814;SDS011;58428;49.478;10.986;2022-08-14T14:53:39;46.03;;;21.58;;
70814;SDS011;58428;49.478;10.986;2022-08-14T14:56:05;10.70;;;6.25;;
70814;SDS011;58428;49.478;10.986;2022-08-14T14:58:34;30.45;;;14.73;;
70814;SDS011;58428;49.478;10.986;2022-08-14T15:01:02;9.20;;;5.82;;
70814;SDS011;58428;49.478;10.986;2022-08-14T15:03:32;10.57;;;6.05;;
70814;SDS011;58428;49.478;10.986;2022-08-14T15:05:59;9.70;;;6.10;;
70814;SDS011;58428;49.478;10.986;2022-08-14T15:08:24;24.88;;;14.88;;
70814;SDS011;58428;49.478;10.986;2022-08-14T15:10:50;7.13;;;5.07;;
70814;SDS011;58428;49.478;10.986;2022-08-14T15:13:17;10.85;;;7.75;;
70814;SDS011;58428;49.478;10.986;2022-08-14T15:15:45;11.63;;;8.18;;
70814;SDS011;58428;49.478;10.986;2022-08-14T15:18:11;7.18;;;5.13;;
70814;SDS011;58428;49.478;10.986;2022-08-14T15:20:37;6.57;;;4.85;;
70814;SDS011;58428;49.478;10.986;2022-08-14T15:23:03;12.43;;;9.57;;
70814;SDS011;58428;49.478;10.986;2022-08-14T15:25:31;11.18;;;6.88;;